Airfield :
LOGIN :

Register | Disclaimer

   EN    FR    IT 

 










Legend :    VFR   Marginal VFR   IFR   Intensive IFR   Very Intensive IFR
Visi :
Ceiling :
>= 8 km
>= 3000ft
5 to 8 km
1000 to 3000 ft
1500m to 5 km
500 to 1000 ft
800 to 1500m
200 to 500 ft
< 800m
< 200 ft
Symbols :   Thunderstorms  Fog  Heavy snow  Heavy precipitations  Wind > 20 kt
SIGMETs :     Misc.  Thunderstorms  Icing  Turbulence  Mountain Waves  Volcanic Ashes






- Airport Elevation : 1325 ft
- IATA code : EBU


LFMH - St-Etienne Boutheon

CURRENT METAR :
  • 070430Z AUTO 00000KT CAVOK 13/08 Q1019 NOSIG

EXPIRED METARs :
  • 070400Z AUTO 16001KT CAVOK 13/08 Q1019 NOSIG
  • 070330Z AUTO 17002KT CAVOK 14/08 Q1019 NOSIG
  • 070300Z AUTO 00000KT CAVOK 14/08 Q1019 NOSIG
  • 070230Z AUTO 00000KT CAVOK 14/08 Q1019
  • 070200Z AUTO 16003KT CAVOK 15/08 Q1019
  • 070130Z AUTO 18003KT CAVOK 14/08 Q1019

TAF TAF LFMH
Valid from the 07 at 03:00 until the 08 at 03:00 UTC


070200Z 0703/0803 15004KT CAVOK
BECMG 0708/0711 34005KT
BECMG 0720/0723 15005KT
ATIS : +33 4 77 36 17 51



MET'MAP, your aeronautical weather chart ! - Copyright ORBIFLY December 2007 - Disclaimer

ORBIFLY MET'MAP TEAM :

Programming & Development : Alexandra Zaïnal
Concept & original design : Baudouin d'Aumeries
Assistance for programming : Marc-Olivier Méhu
Technical & hardware support : Manuel Goepfert

Contact : metmap@orbifly.com




SOURCES & CREDITS :

   NOAA